History for KNYNEWYO982

Hells Kitchen C°, New York, NY — Current Conditions
Daily Summary for January 20, 2019
  Current: High: Low: Average:
Temperature: 32.5°F 43.7°F 32.5°F 38.1°F
Dew Point: 30.9°F 42.1°F 30.9°F 36.3°F
Humidity: 94% 94% 93% 94%
Wind Speed: 3.1mph 13.4mph - 4.1mph
Wind Gust: 8.5mph 36.0mph - -
Wind: NNW - - North
Pressure: 29.47in 29.85in 29.23in -
Precipitation: 1.47in      
Solar Radiation: 45 watts/m^2      
UV Index: 0.2      
Statistics for the rest of the month
    High: Low: Average:
Temperature:   57.0°F 23.2°F 37.0°F
Dew Point:   55.2°F 4.6°F 24.3°F
Humidity:   97.0% 30.0% 61.0%
Wind Speed:   16.1mph from the NW - 2.8mph
Wind Gust:   36.0mph from the NNW - -
Wind:   - - WNW
Pressure:   30.57in 29.23in -
Precipitation:   2.90in    
KNYNEWYO982 Weather Graph
Tabular Data for January 20, 2019
Time Temp. Windchill Dew Point Pressure Wind Gust Humidity Rainfall Solar Radiation
00:03 35.6°F 31.8°F 33.8°F 29.85in 7.6mph 93% 0.25in 0.00 watts/m^2
00:08 35.4°F 31.0°F 33.6°F 29.84in 9.8mph 93% 0.25in 0.00 watts/m^2
00:13 35.6°F 30.3°F 33.8°F 29.84in 9.2mph 93% 0.26in 0.00 watts/m^2
00:18 35.6°F - 33.8°F 29.85in 2.7mph 93% 0.27in 0.00 watts/m^2
00:23 35.8°F - 34.0°F 29.84in 4.7mph 93% 0.28in 0.00 watts/m^2
00:28 35.8°F 32.9°F 34.0°F 29.84in 5.6mph 93% 0.28in 0.00 watts/m^2
00:33 35.8°F - 34.0°F 29.83in 4.3mph 93% 0.28in 0.00 watts/m^2
00:38 36.1°F - 34.3°F 29.81in 3.6mph 93% 0.29in 0.00 watts/m^2
00:43 36.0°F 31.3°F 34.2°F 29.79in 9.2mph 93% 0.29in 0.00 watts/m^2
00:48 36.3°F 32.6°F 34.5°F 29.78in 9.2mph 93% 0.29in 0.00 watts/m^2
00:53 36.7°F - 34.9°F 29.77in 5.6mph 93% 0.28in 0.00 watts/m^2
00:58 36.9°F 34.2°F 35.1°F 29.76in 8.3mph 93% 0.28in 0.00 watts/m^2
01:03 37.0°F 34.9°F 35.2°F 29.75in 7.4mph 93% 0.28in 0.00 watts/m^2
01:08 37.0°F - 35.2°F 29.75in 3.6mph 93% 0.28in 0.00 watts/m^2
01:13 37.0°F - 35.2°F 29.75in 6.7mph 93% 0.26in 0.00 watts/m^2
01:18 36.9°F - 35.1°F 29.76in 4.5mph 93% 0.25in 0.00 watts/m^2
01:23 36.7°F 33.5°F 34.9°F 29.76in 8.9mph 93% 0.23in 0.00 watts/m^2
01:28 36.7°F 31.6°F 34.9°F 29.77in 9.8mph 93% 0.23in 0.00 watts/m^2
01:33 36.7°F 32.3°F 34.9°F 29.78in 8.5mph 93% 0.23in 0.00 watts/m^2
01:38 36.7°F 34.5°F 34.9°F 29.77in 5.6mph 93% 0.22in 0.00 watts/m^2
01:43 36.9°F - 35.1°F 29.76in 4.3mph 93% 0.23in 0.00 watts/m^2
01:48 36.9°F - 35.1°F 29.76in 3.8mph 93% 0.23in 0.00 watts/m^2
01:53 36.7°F 33.9°F 34.9°F 29.75in 6.7mph 93% 0.23in 0.00 watts/m^2
01:58 36.7°F 33.7°F 34.9°F 29.75in 4.9mph 93% 0.23in 0.00 watts/m^2
02:03 36.7°F 33.9°F 34.9°F 29.76in 6.7mph 93% 0.23in 0.00 watts/m^2
02:08 36.7°F 32.9°F 34.9°F 29.75in 10.1mph 93% 0.23in 0.00 watts/m^2
02:13 36.7°F 30.8°F 34.9°F 29.75in 15.9mph 93% 0.23in 0.00 watts/m^2
02:18 36.5°F - 34.7°F 29.77in 4.5mph 93% 0.24in 0.00 watts/m^2
02:23 36.3°F - 34.5°F 29.77in 4.0mph 93% 0.23in 0.00 watts/m^2
02:28 36.5°F 33.0°F 34.7°F 29.76in 6.5mph 93% 0.22in 0.00 watts/m^2
02:33 36.3°F 33.5°F 34.5°F 29.76in 10.1mph 93% 0.22in 0.00 watts/m^2
02:38 36.5°F 32.5°F 34.9°F 29.72in 10.3mph 94% 0.22in 0.00 watts/m^2
02:43 36.7°F 33.7°F 35.1°F 29.72in 6.9mph 94% 0.21in 0.00 watts/m^2
02:48 36.7°F 30.2°F 35.1°F 29.69in 17.4mph 94% 0.20in 0.00 watts/m^2
02:53 36.5°F 31.0°F 34.9°F 29.68in 16.8mph 94% 0.19in 0.00 watts/m^2
02:58 36.5°F - 34.9°F 29.67in 8.5mph 94% 0.18in 0.00 watts/m^2
03:03 36.5°F 33.3°F 34.9°F 29.66in 11.4mph 94% 0.16in 0.00 watts/m^2
03:08 36.5°F 33.0°F 34.9°F 29.66in 7.6mph 94% 0.15in 0.00 watts/m^2
03:13 36.5°F - 34.9°F 29.66in 4.5mph 94% 0.14in 0.00 watts/m^2
03:18 36.7°F 33.9°F 35.1°F 29.65in 7.4mph 94% 0.15in 0.00 watts/m^2
03:23 36.9°F 33.5°F 35.2°F 29.65in 6.7mph 94% 0.17in 0.00 watts/m^2
03:28 36.9°F 34.0°F 35.2°F 29.64in 7.4mph 94% 0.17in 0.00 watts/m^2
03:33 36.9°F 33.7°F 35.2°F 29.63in 9.2mph 94% 0.16in 0.00 watts/m^2
03:39 36.9°F 33.1°F 35.2°F 29.64in 7.2mph 94% 0.15in 0.00 watts/m^2
03:44 36.7°F 33.2°F 35.1°F 29.64in 6.0mph 94% 0.15in 0.00 watts/m^2
03:49 36.9°F 34.0°F 35.2°F 29.63in 5.4mph 94% 0.15in 0.00 watts/m^2
03:54 36.9°F 32.9°F 35.2°F 29.64in 6.7mph 94% 0.16in 0.00 watts/m^2
03:58 36.9°F 34.2°F 35.2°F 29.63in 5.1mph 94% 0.17in 0.00 watts/m^2
04:04 37.0°F - 35.4°F 29.62in 4.9mph 94% 0.18in 0.00 watts/m^2
04:09 37.0°F 32.0°F 35.4°F 29.61in 11.9mph 94% 0.19in 0.00 watts/m^2
04:14 37.0°F 34.1°F 35.4°F 29.59in 6.0mph 94% 0.19in 0.00 watts/m^2
04:19 37.2°F 34.5°F 35.6°F 29.59in 6.3mph 94% 0.18in 0.00 watts/m^2
04:24 37.0°F 34.3°F 35.4°F 29.58in 5.8mph 94% 0.16in 0.00 watts/m^2
04:29 37.2°F 34.5°F 35.6°F 29.58in 5.8mph 94% 0.16in 0.00 watts/m^2
04:34 37.4°F 34.7°F 35.8°F 29.57in 6.7mph 94% 0.16in 0.00 watts/m^2
04:39 37.4°F - 35.8°F 29.57in 5.4mph 94% 0.16in 0.00 watts/m^2
04:44 37.4°F 35.3°F 35.8°F 29.57in 5.4mph 94% 0.15in 0.00 watts/m^2
04:49 37.6°F 35.0°F 36.0°F 29.56in 8.3mph 94% 0.14in 0.00 watts/m^2
04:54 37.6°F 35.0°F 36.0°F 29.55in 7.8mph 94% 0.13in 0.00 watts/m^2
04:59 37.8°F 34.0°F 36.1°F 29.55in 10.3mph 94% 0.13in 0.00 watts/m^2
05:04 37.8°F 35.8°F 36.1°F 29.55in 6.9mph 94% 0.12in 0.00 watts/m^2
05:09 37.8°F 34.8°F 36.1°F 29.54in 6.5mph 94% 0.12in 0.00 watts/m^2
05:14 37.8°F 32.8°F 36.1°F 29.53in 11.6mph 94% 0.12in 0.00 watts/m^2
05:19 37.6°F 33.9°F 36.0°F 29.52in 7.6mph 94% 0.12in 0.00 watts/m^2
05:24 37.6°F 33.6°F 36.0°F 29.51in 10.5mph 94% 0.12in 0.00 watts/m^2
05:29 37.6°F 32.9°F 36.0°F 29.51in 9.4mph 94% 0.11in 0.00 watts/m^2
05:34 37.2°F - 35.6°F 29.52in 4.7mph 94% 0.11in 0.00 watts/m^2
05:39 37.4°F 34.3°F 35.8°F 29.51in 8.5mph 94% 0.12in 0.00 watts/m^2
05:44 37.4°F 33.7°F 35.8°F 29.50in 8.5mph 94% 0.12in 0.00 watts/m^2
05:49 37.6°F 33.2°F 36.0°F 29.50in 9.8mph 94% 0.12in 0.00 watts/m^2
05:54 37.4°F 33.5°F 35.8°F 29.50in 7.6mph 94% 0.11in 0.00 watts/m^2
05:59 37.4°F 33.3°F 35.8°F 29.49in 9.2mph 94% 0.10in 0.00 watts/m^2
06:04 37.6°F 32.6°F 36.0°F 29.49in 11.2mph 94% 0.10in 0.00 watts/m^2
06:09 37.6°F - 36.0°F 29.49in 3.8mph 94% 0.09in 0.00 watts/m^2
06:14 37.6°F 34.1°F 36.0°F 29.49in 8.7mph 94% 0.08in 0.00 watts/m^2
06:19 37.8°F 35.8°F 36.1°F 29.48in 6.7mph 94% 0.07in 0.00 watts/m^2
06:24 37.8°F 35.0°F 36.1°F 29.48in 6.7mph 94% 0.07in 0.00 watts/m^2
06:29 37.9°F 35.3°F 36.3°F 29.48in 6.9mph 94% 0.06in 0.00 watts/m^2
06:34 37.9°F 35.3°F 36.3°F 29.47in 7.4mph 94% 0.07in 0.00 watts/m^2
06:39 38.1°F - 36.5°F 29.47in 5.6mph 94% 0.07in 0.00 watts/m^2
06:44 38.3°F 36.3°F 36.7°F 29.45in 5.4mph 94% 0.07in 0.00 watts/m^2
06:49 38.3°F 35.4°F 36.7°F 29.45in 7.2mph 94% 0.08in 0.00 watts/m^2
06:54 38.5°F 36.6°F 36.9°F 29.44in 6.7mph 94% 0.08in 0.00 watts/m^2
06:59 38.5°F - 36.9°F 29.43in 4.7mph 94% 0.08in 0.00 watts/m^2
07:04 38.7°F 36.2°F 37.0°F 29.43in 9.4mph 94% 0.09in 0.00 watts/m^2
07:09 38.7°F 34.5°F 37.0°F 29.42in 14.1mph 94% 0.10in 0.00 watts/m^2
07:14 38.7°F 32.6°F 37.0°F 29.40in 16.6mph 94% 0.11in 0.00 watts/m^2
07:19 38.7°F - 37.0°F 29.40in 5.8mph 94% 0.12in 0.00 watts/m^2
07:24 38.7°F - 37.0°F 29.39in 3.4mph 94% 0.12in 1.00 watts/m^2
07:29 38.7°F 35.8°F 37.0°F 29.38in 7.8mph 94% 0.11in 1.00 watts/m^2
07:34 38.8°F 35.5°F 37.2°F 29.37in 8.7mph 94% 0.10in 2.00 watts/m^2
07:39 39.0°F - 37.4°F 29.38in 6.3mph 94% 0.09in 3.00 watts/m^2
07:44 39.2°F - 37.6°F 29.38in 5.1mph 94% 0.08in 4.00 watts/m^2
07:49 39.2°F - 37.6°F 29.38in 3.1mph 94% 0.07in 4.00 watts/m^2
07:54 39.2°F - 37.6°F 29.38in 4.7mph 94% 0.06in 4.00 watts/m^2
07:59 39.2°F - 37.6°F 29.38in 3.4mph 94% 0.05in 3.00 watts/m^2
08:04 39.0°F 37.1°F 37.4°F 29.39in 4.0mph 94% 0.05in 2.00 watts/m^2
08:09 38.8°F - 37.2°F 29.40in 4.7mph 94% 0.05in 3.00 watts/m^2
08:14 38.8°F 36.1°F 37.2°F 29.40in 7.2mph 94% 0.06in 4.00 watts/m^2
08:19 39.0°F - 37.4°F 29.40in 7.4mph 94% 0.07in 4.00 watts/m^2
08:24 39.0°F - 37.4°F 29.38in 4.3mph 94% 0.08in 6.00 watts/m^2
08:29 39.0°F 35.9°F 37.4°F 29.38in 7.6mph 94% 0.10in 5.00 watts/m^2
08:34 38.8°F - 37.2°F 29.38in 6.0mph 94% 0.12in 10.00 watts/m^2
08:39 38.8°F 35.7°F 37.2°F 29.37in 6.9mph 94% 0.14in 10.00 watts/m^2
08:44 38.8°F 35.3°F 37.2°F 29.38in 11.0mph 94% 0.16in 8.00 watts/m^2
08:49 39.0°F - 37.4°F 29.33in 6.0mph 94% 0.18in 20.00 watts/m^2
08:54 39.2°F - 37.6°F 29.33in 5.8mph 94% 0.18in 20.00 watts/m^2
08:59 39.2°F - 37.6°F 29.33in 3.4mph 94% 0.18in 13.00 watts/m^2
09:04 39.6°F - 37.9°F 29.34in 2.7mph 94% 0.18in 14.00 watts/m^2
09:09 39.7°F 37.2°F 38.1°F 29.33in 5.6mph 94% 0.18in 15.00 watts/m^2
09:14 40.1°F 37.8°F 38.5°F 29.31in 5.4mph 94% 0.18in 20.00 watts/m^2
09:19 40.6°F - 39.0°F 29.29in 4.0mph 94% 0.17in 20.00 watts/m^2
09:24 41.0°F 38.1°F 39.4°F 29.29in 8.5mph 94% 0.16in 30.00 watts/m^2
09:29 41.4°F 39.1°F 39.7°F 29.31in 6.0mph 94% 0.14in 19.00 watts/m^2
09:34 41.5°F 40.0°F 39.9°F 29.30in 6.0mph 94% 0.12in 14.00 watts/m^2
09:39 41.4°F 39.1°F 39.7°F 29.28in 9.8mph 94% 0.10in 26.00 watts/m^2
09:44 41.5°F 38.3°F 39.9°F 29.28in 7.4mph 94% 0.08in 50.00 watts/m^2
09:49 41.9°F 37.6°F 40.3°F 29.27in 10.5mph 94% 0.06in 63.00 watts/m^2
09:54 42.1°F 39.0°F 40.5°F 29.27in 7.4mph 94% 0.06in 63.00 watts/m^2
09:59 42.3°F 38.8°F 40.6°F 29.27in 8.3mph 94% 0.05in 44.00 watts/m^2
10:04 42.4°F 38.3°F 40.8°F 29.27in 8.9mph 94% 0.04in 35.00 watts/m^2
10:09 42.6°F 39.5°F 41.0°F 29.26in 7.8mph 94% 0.03in 28.00 watts/m^2
10:14 43.0°F 40.1°F 41.4°F 29.25in 7.6mph 94% 0.02in 29.00 watts/m^2
10:19 43.2°F 39.8°F 41.5°F 29.25in 6.9mph 94% 0.01in 17.00 watts/m^2
10:24 43.3°F 40.6°F 41.7°F 29.25in 6.5mph 94% 0.00in 22.00 watts/m^2
10:29 43.3°F 40.9°F 41.7°F 29.27in 5.6mph 94% 0.00in 19.00 watts/m^2
10:34 43.5°F 40.5°F 41.9°F 29.26in 7.4mph 94% 0.00in 22.00 watts/m^2
10:39 43.5°F 41.1°F 41.9°F 29.25in 6.7mph 94% 0.00in 18.00 watts/m^2
10:44 43.5°F 40.1°F 41.9°F 29.23in 8.7mph 94% 0.00in 21.00 watts/m^2
10:49 43.7°F 41.2°F 42.1°F 29.24in 6.9mph 94% 0.00in 27.00 watts/m^2
10:54 43.7°F 40.9°F 42.1°F 29.23in 7.4mph 94% 0.00in 36.00 watts/m^2
10:59 43.7°F 39.8°F 42.1°F 29.29in 17.2mph 94% 0.00in 12.00 watts/m^2
11:04 42.4°F 39.4°F 40.8°F 29.31in 8.9mph 94% 0.00in 8.00 watts/m^2
11:09 41.7°F 39.3°F 40.1°F 29.31in 8.7mph 94% 0.00in 16.00 watts/m^2
11:14 41.2°F 39.1°F 39.6°F 29.31in 6.9mph 94% 0.00in 15.00 watts/m^2
11:19 40.8°F 37.5°F 39.2°F 29.30in 8.5mph 94% 0.01in 33.00 watts/m^2
11:24 40.5°F 37.1°F 38.8°F 29.28in 7.6mph 94% 0.01in 62.00 watts/m^2
11:29 40.3°F 36.3°F 38.7°F 29.29in 8.7mph 94% 0.01in 54.00 watts/m^2
11:34 40.3°F 37.1°F 38.7°F 29.28in 7.2mph 94% 0.01in 66.00 watts/m^2
11:39 39.7°F 36.4°F 38.1°F 29.29in 7.2mph 94% 0.01in 53.00 watts/m^2
11:44 39.6°F 35.4°F 37.9°F 29.29in 8.5mph 94% 0.01in 103.00 watts/m^2
11:49 39.6°F 36.3°F 37.9°F 29.29in 6.7mph 94% 0.01in 87.00 watts/m^2
11:54 39.4°F 35.7°F 37.8°F 29.30in 7.6mph 94% 0.01in 140.00 watts/m^2
11:59 39.0°F 35.4°F 37.4°F 29.30in 8.3mph 94% 0.01in 82.00 watts/m^2
12:04 38.5°F 34.8°F 36.9°F 29.30in 8.5mph 94% 0.01in 96.00 watts/m^2
12:09 38.3°F 34.7°F 36.7°F 29.31in 7.4mph 94% 0.00in 112.00 watts/m^2
12:14 37.9°F 33.7°F 36.3°F 29.31in 8.9mph 94% 0.00in 113.00 watts/m^2
12:19 37.9°F 33.1°F 36.3°F 29.30in 10.5mph 94% 0.00in 139.00 watts/m^2
12:24 37.9°F 34.4°F 36.3°F 29.30in 6.5mph 94% 0.00in 142.00 watts/m^2
12:29 37.8°F 34.3°F 36.1°F 29.29in 11.4mph 94% 0.00in 194.00 watts/m^2
12:34 37.8°F 32.8°F 36.1°F 29.29in 14.5mph 94% 0.00in 260.00 watts/m^2
12:39 37.9°F 34.6°F 36.3°F 29.30in 8.5mph 94% 0.00in 240.00 watts/m^2
12:44 37.9°F 34.6°F 36.3°F 29.30in 7.4mph 94% 0.00in 248.00 watts/m^2
12:49 38.1°F - 36.5°F 29.31in 4.9mph 94% 0.00in 248.00 watts/m^2
12:54 38.1°F 31.9°F 36.5°F 29.31in 18.3mph 94% 0.00in 224.00 watts/m^2
12:59 38.5°F - 36.9°F 29.31in 9.2mph 94% 0.00in 195.00 watts/m^2
13:04 38.5°F 36.2°F 36.9°F 29.31in 5.6mph 94% 0.00in 153.00 watts/m^2
13:09 38.5°F 33.5°F 36.9°F 29.31in 13.6mph 94% 0.00in 128.00 watts/m^2
13:14 38.5°F - 36.9°F 29.31in 4.7mph 94% 0.00in 91.00 watts/m^2
13:19 38.3°F 33.4°F 36.7°F 29.31in 17.4mph 94% 0.00in 88.00 watts/m^2
13:24 38.5°F 35.3°F 36.9°F 29.32in 11.6mph 94% 0.00in 75.00 watts/m^2
13:29 38.5°F 34.4°F 36.9°F 29.32in 14.5mph 94% 0.00in 85.00 watts/m^2
13:34 38.7°F 32.4°F 37.0°F 29.33in 15.7mph 94% 0.00in 86.00 watts/m^2
13:39 38.7°F 33.6°F 37.0°F 29.33in 17.7mph 94% 0.00in 88.00 watts/m^2
13:44 38.5°F 36.0°F 36.9°F 29.34in 10.3mph 94% 0.00in 73.00 watts/m^2
13:49 38.7°F 36.8°F 37.0°F 29.35in 6.0mph 94% 0.00in 71.00 watts/m^2
13:54 38.3°F 34.7°F 36.7°F 29.36in 9.4mph 94% 0.00in 69.00 watts/m^2
13:59 37.8°F 32.1°F 36.1°F 29.36in 15.0mph 94% 0.00in 72.00 watts/m^2
14:04 37.6°F - 36.0°F 29.36in 8.9mph 94% 0.00in 84.00 watts/m^2
14:09 37.0°F 30.2°F 35.4°F 29.37in 21.3mph 94% 0.00in 98.00 watts/m^2
14:14 36.9°F 34.0°F 35.2°F 29.37in 11.4mph 94% 0.00in 112.00 watts/m^2
14:19 36.7°F 31.2°F 35.1°F 29.36in 18.1mph 94% 0.00in 100.00 watts/m^2
14:24 36.3°F 31.5°F 34.7°F 29.37in 11.2mph 94% 0.00in 105.00 watts/m^2
14:29 35.8°F 30.8°F 34.2°F 29.38in 13.9mph 94% 0.00in 88.00 watts/m^2
14:34 35.6°F - 34.0°F 29.38in 3.6mph 94% 0.00in 83.00 watts/m^2
14:39 35.4°F 32.0°F 33.8°F 29.40in 6.9mph 94% 0.00in 64.00 watts/m^2
14:44 35.1°F - 33.4°F 29.41in 3.8mph 94% 0.00in 63.00 watts/m^2
14:49 34.9°F - 33.3°F 29.41in 8.5mph 94% 0.00in 55.00 watts/m^2
14:54 34.7°F 31.6°F 33.1°F 29.42in 10.3mph 94% 0.00in 58.00 watts/m^2
14:59 34.3°F 30.7°F 32.7°F 29.42in 8.9mph 94% 0.00in 59.00 watts/m^2
15:04 34.2°F - 32.5°F 29.43in 4.0mph 94% 0.00in 60.00 watts/m^2
15:09 34.0°F 30.8°F 32.4°F 29.43in 7.6mph 94% 0.00in 63.00 watts/m^2
15:14 33.6°F 29.9°F 32.0°F 29.44in 8.7mph 94% 0.00in 60.00 watts/m^2
15:19 33.4°F 28.8°F 31.8°F 29.44in 9.8mph 94% 0.00in 68.00 watts/m^2
15:24 33.3°F - 31.6°F 29.44in 9.8mph 94% 0.00in 65.00 watts/m^2
15:29 33.1°F - 31.5°F 29.44in 3.4mph 94% 0.00in 66.00 watts/m^2
15:34 32.9°F - 31.3°F 29.45in 7.8mph 94% 0.00in 62.00 watts/m^2
15:39 32.9°F - 31.3°F 29.45in 2.5mph 94% 0.00in 79.00 watts/m^2
15:44 32.5°F - 30.9°F 29.45in 6.0mph 94% 0.00in 74.00 watts/m^2
15:49 32.7°F - 31.1°F 29.47in 5.6mph 94% 0.00in 46.00 watts/m^2
Comma Delimited File
Powered by Weather Underground, Inc.